Time;durP1;ratioP1;P1;durP2;ratioP2;P2;SDS_P1;SDS_P2;PMS_P1;PMS_P2;Temp;Humidity;BMP_temperature;BMP_pressure;BME280_temperature;BME280_humidity;BME280_pressure;Samples;Min_cycle;Max_cycle;Signal;HPM_P1;HPM_P2
2021/11/11 00:01:20;;;;;;;;;61.50;49.50;;;;;7.64;65.81;101717.41;5057486;28;45614;-82
2021/11/11 00:03:46;;;;;;;;;64.75;52.25;;;;;7.63;65.94;101710.50;5056310;28;47133;-83
2021/11/11 00:06:11;;;;;;;;;72.00;53.75;;;;;7.41;65.81;101672.25;5057498;28;46322;-83
2021/11/11 00:08:37;;;;;;;;;65.75;52.00;;;;;7.59;66.09;101699.34;5057561;28;45633;-82
2021/11/11 00:11:02;;;;;;;;;63.00;51.00;;;;;7.62;65.96;101720.06;5057363;28;45781;-85
2021/11/11 00:13:28;;;;;;;;;61.00;48.75;;;;;7.56;66.16;101708.13;5057683;28;46814;-83
2021/11/11 00:15:53;;;;;;;;;66.50;52.00;;;;;7.61;66.28;101720.16;5055778;28;46361;-83
2021/11/11 00:18:19;;;;;;;;;65.25;52.25;;;;;7.52;65.89;101714.38;5057488;28;45453;-83
2021/11/11 00:20:44;;;;;;;;;66.00;54.25;;;;;7.53;66.08;101723.91;5055789;28;45826;-83
2021/11/11 00:23:10;;;;;;;;;67.50;49.75;;;;;7.51;66.47;101728.34;5055600;28;48357;-83
2021/11/11 00:25:37;;;;;;;;;61.50;47.25;;;;;7.49;66.36;101730.16;5057152;28;45627;-83
2021/11/11 00:31:24;;;;;;;;;48.75;41.75;;;;;7.51;66.39;101719.66;5057298;28;45617;-84
2021/11/11 00:33:50;;;;;;;;;63.25;48.00;;;;;7.51;66.46;101715.28;5057080;28;46460;-84
2021/11/11 00:36:17;;;;;;;;;61.50;48.50;;;;;7.48;66.53;101694.56;5055388;28;47378;-83
2021/11/11 00:39:29;;;;;;;;;62.25;50.00;;;;;7.40;66.40;101674.91;5055511;28;45605;-81
2021/11/11 01:34:06;;;;;;;;;;;;;;;;;;;;;
2021/11/11 01:36:32;;;;;;;;;66.00;49.75;;;;;7.22;66.85;101645.25;5893514;24;76507;-84
2021/11/11 01:38:58;;;;;;;;;68.00;53.00;;;;;7.36;67.14;101644.69;5895755;24;45810;-83
2021/11/11 01:41:24;;;;;;;;;68.75;53.75;;;;;7.41;67.15;101648.81;5895601;24;46228;-84
2021/11/11 01:43:49;;;;;;;;;68.00;54.75;;;;;7.32;67.12;101632.69;5894828;24;46583;-82
2021/11/11 01:46:15;;;;;;;;;70.00;53.75;;;;;7.46;66.94;101651.22;5896065;24;46239;-82
2021/11/11 01:48:40;;;;;;;;;70.50;54.50;;;;;7.39;67.32;101637.59;5896266;24;45853;-84
2021/11/11 01:51:06;;;;;;;;;70.00;52.50;;;;;7.44;67.06;101638.25;5896039;24;45859;-85
2021/11/11 01:53:32;;;;;;;;;75.75;56.50;;;;;7.41;66.98;101632.31;5895079;24;46527;-83
2021/11/11 01:55:57;;;;;;;;;67.50;53.50;;;;;7.33;67.12;101621.38;5895797;24;46388;-83
2021/11/11 01:58:22;;;;;;;;;71.50;57.00;;;;;7.14;66.89;101590.00;5894956;24;45657;-84
2021/11/11 02:00:55;;;;;;;;;60.75;51.50;;;;;7.39;67.08;101624.56;5895399;24;45760;-84
2021/11/11 02:03:21;;;;;;;;;65.00;54.00;;;;;7.44;66.93;101647.84;5895514;24;45712;-83
2021/11/11 02:05:47;;;;;;;;;71.25;52.25;;;;;7.45;66.96;101646.94;5926836;23;45669;-84
2021/11/11 02:08:13;;;;;;;;;68.50;53.00;;;;;7.44;66.92;101651.31;5992691;23;45823;-84
2021/11/11 02:10:39;;;;;;;;;74.00;55.50;;;;;7.43;67.46;101644.38;6144061;23;45605;-83
2021/11/11 02:13:06;;;;;;;;;68.75;52.75;;;;;7.44;67.12;101637.41;6218791;22;45779;-83
2021/11/11 02:15:33;;;;;;;;;70.00;55.00;;;;;7.39;67.14;101626.31;6279813;22;46104;-82
2021/11/11 02:17:58;;;;;;;;;69.25;53.50;;;;;7.37;67.17;101622.94;6279794;22;45575;-84
2021/11/11 02:23:35;;;;;;;;;73.75;56.00;;;;;7.00;67.22;101564.50;6181288;23;46097;-84
2021/11/11 02:26:03;;;;;;;;;74.75;57.25;;;;;7.05;67.30;101572.13;6181192;23;46086;-84
2021/11/11 02:28:29;;;;;;;;;70.25;57.25;;;;;7.30;67.07;101613.66;6181370;23;45857;-85
2021/11/11 02:30:55;;;;;;;;;68.50;53.75;;;;;7.41;67.57;101643.59;6180633;23;45740;-83
2021/11/11 02:33:25;;;;;;;;;74.25;59.00;;;;;7.39;67.39;101637.59;6177636;23;48447;-83
2021/11/11 02:35:52;;;;;;;;;73.25;57.00;;;;;7.38;67.17;101650.69;6176992;23;46563;-83
2021/11/11 02:38:18;;;;;;;;;69.00;53.25;;;;;7.38;67.64;101648.09;6177246;23;45967;-84
2021/11/11 02:40:45;;;;;;;;;70.25;55.75;;;;;7.35;67.19;101636.00;6176470;23;45752;-84
2021/11/11 02:43:13;;;;;;;;;73.50;58.00;;;;;7.31;67.51;101631.84;6151056;23;47002;-82
2021/11/11 02:45:43;;;;;;;;;68.00;52.75;;;;;7.39;67.41;101647.19;6176512;23;45824;-85
2021/11/11 02:48:13;;;;;;;;;70.75;53.50;;;;;7.37;67.22;101646.38;6176165;23;46228;-84
2021/11/11 02:50:40;;;;;;;;;69.25;55.50;;;;;7.37;67.38;101652.44;6175404;23;45571;-82
2021/11/11 02:53:08;;;;;;;;;77.50;58.25;;;;;7.34;67.36;101642.13;6150486;23;48398;-82
2021/11/11 02:55:34;;;;;;;;;75.00;58.75;;;;;7.30;67.30;101642.31;6150578;23;46147;-84
2021/11/11 02:58:00;;;;;;;;;72.00;56.50;;;;;7.20;67.92;101643.63;6176112;23;45725;-84
2021/11/11 03:00:30;;;;;;;;;73.75;58.50;;;;;7.22;67.48;101647.88;6223995;22;45615;-84
2021/11/11 03:02:55;;;;;;;;;69.50;54.75;;;;;7.05;67.35;101611.22;6271205;22;46989;-85
2021/11/11 03:05:29;;;;;;;;;73.75;55.75;;;;;7.13;67.35;101620.41;6269426;22;47146;-84
2021/11/11 03:07:54;;;;;;;;;74.75;58.50;;;;;7.25;67.54;101642.53;6270716;22;45613;-83
2021/11/11 03:10:27;;;;;;;;;76.25;57.75;;;;;6.88;67.60;101580.63;6272271;22;45742;-85
2021/11/11 03:12:55;;;;;;;;;69.50;55.00;;;;;7.22;67.75;101652.22;6271930;22;45757;-82
2021/11/11 03:15:24;;;;;;;;;74.25;58.50;;;;;7.20;67.66;101652.28;6245047;22;46023;-82
2021/11/11 03:17:50;;;;;;;;;65.75;53.50;;;;;7.19;67.49;101650.59;6273451;22;45712;-83
2021/11/11 03:20:17;;;;;;;;;67.25;54.50;;;;;7.19;67.35;101647.97;6271384;22;45991;-84
2021/11/11 03:22:43;;;;;;;;;72.75;59.00;;;;;7.02;67.46;101622.59;6270755;22;45727;-84
2021/11/11 03:25:16;;;;;;;;;69.75;56.00;;;;;7.12;67.56;101638.72;6269845;22;46096;-82
2021/11/11 03:27:42;;;;;;;;;74.00;56.50;;;;;7.11;67.59;101647.44;6271945;22;46344;-84
2021/11/11 03:33:23;;;;;;;;;76.25;56.50;;;;;6.23;67.70;101498.19;6056981;23;45795;-83
2021/11/11 03:36:21;;;;;;;;;72.50;57.75;;;;;6.83;67.77;101597.34;6058879;23;46103;-82
2021/11/11 03:38:46;;;;;;;;;64.25;51.50;;;;;6.92;67.75;101605.63;6023104;23;46292;-84
2021/11/11 03:41:12;;;;;;;;;66.75;52.75;;;;;6.67;67.51;101558.91;6058659;23;45706;-83
2021/11/11 03:43:37;;;;;;;;;63.00;52.00;;;;;7.17;67.42;101644.59;6039835;23;48152;-84
2021/11/11 03:46:03;;;;;;;;;67.50;55.00;;;;;7.16;67.50;101641.16;6066846;23;45603;-83
2021/11/11 03:48:28;;;;;;;;;64.25;52.00;;;;;7.04;67.35;101628.59;6066472;23;46105;-83
2021/11/11 03:50:54;;;;;;;;;65.75;52.25;;;;;7.09;67.34;101631.88;6063759;23;45586;-83
2021/11/11 03:53:19;;;;;;;;;67.25;54.25;;;;;6.97;67.11;101624.53;6060544;23;45669;-83
2021/11/11 03:55:44;;;;;;;;;65.50;52.00;;;;;7.10;67.28;101643.16;6062257;23;46173;-81
2021/11/11 03:58:15;;;;;;;;;65.00;52.50;;;;;7.15;67.05;101654.22;6062120;23;46074;-84
2021/11/11 04:00:42;;;;;;;;;63.00;53.00;;;;;7.13;67.16;101654.28;6061752;23;45589;-86
2021/11/11 04:03:07;;;;;;;;;68.50;52.50;;;;;6.73;67.30;101583.84;6058251;23;45659;-83
2021/11/11 04:05:32;;;;;;;;;74.75;57.00;;;;;7.12;67.44;101655.22;6058943;23;45716;-84
2021/11/11 04:07:58;;;;;;;;;67.50;53.50;;;;;7.11;67.42;101653.50;6058926;23;45571;-83
2021/11/11 04:10:24;;;;;;;;;63.50;50.50;;;;;7.10;67.10;101656.16;6161022;22;45932;-82
2021/11/11 04:12:49;;;;;;;;;61.50;50.25;;;;;7.07;67.07;101651.09;6271060;22;46690;-85
2021/11/11 04:15:15;;;;;;;;;61.75;50.25;;;;;7.03;67.04;101657.31;6243269;22;48205;-83
2021/11/11 04:17:41;;;;;;;;;68.75;53.00;;;;;6.84;67.30;101628.56;6270988;22;45625;-83
2021/11/11 04:20:09;;;;;;;;;63.50;48.00;;;;;6.99;66.91;101660.97;6271645;22;45804;-83
2021/11/11 04:22:34;;;;;;;;;61.00;48.25;;;;;6.84;66.85;101643.31;6270597;22;46246;-83
2021/11/11 04:25:02;;;;;;;;;63.50;50.25;;;;;6.84;66.97;101654.59;6271689;22;45563;-84
2021/11/11 04:27:33;;;;;;;;;56.25;45.75;;;;;6.72;66.82;101644.66;6272301;22;45835;-83
2021/11/11 04:30:11;;;;;;;;;64.00;50.25;;;;;6.94;66.77;101691.53;6244650;22;45951;-83
2021/11/11 04:32:36;;;;;;;;;60.25;48.25;;;;;6.90;66.58;101690.81;6272395;22;46659;-84
2021/11/11 04:35:15;;;;;;;;;62.00;47.00;;;;;6.88;66.50;101690.03;6271046;22;46931;-82
2021/11/11 05:04:37;;;;;;;;;61.00;45.25;;;;;6.52;66.82;101700.09;6207478;22;46193;-88
2021/11/11 05:07:03;;;;;;;;;61.25;51.75;;;;;6.35;66.93;101681.63;6208776;22;45703;-88
2021/11/11 05:09:28;;;;;;;;;65.00;49.50;;;;;6.12;66.60;101637.38;6207585;22;45688;-86
2021/11/11 05:11:54;;;;;;;;;65.75;51.00;;;;;6.35;67.29;101671.22;6212966;22;45649;-85
2021/11/11 05:14:20;;;;;;;;;67.50;51.00;;;;;6.44;66.82;101689.09;6214256;22;47152;-83
2021/11/11 05:16:46;;;;;;;;;63.75;48.50;;;;;6.43;66.88;101689.97;6215773;22;45581;-83
2021/11/11 05:19:11;;;;;;;;;56.50;47.25;;;;;6.33;67.12;101662.59;6188463;22;45726;-82
2021/11/11 05:21:37;;;;;;;;;65.25;51.50;;;;;6.51;66.92;101693.16;6208275;22;45691;-82
2021/11/11 05:24:03;;;;;;;;;58.75;48.25;;;;;6.31;67.23;101656.63;6210249;22;45639;-84
2021/11/11 05:26:29;;;;;;;;;62.50;49.25;;;;;6.43;66.82;101674.38;6227881;22;46421;-83
2021/11/11 05:28:55;;;;;;;;;65.00;52.50;;;;;6.51;66.85;101695.78;6238386;22;45570;-82
2021/11/11 05:31:20;;;;;;;;;72.25;53.50;;;;;6.50;66.71;101695.81;6237100;22;45591;-84
2021/11/11 05:33:46;;;;;;;;;62.25;48.25;;;;;6.51;67.15;101700.13;6237613;22;45597;-83
2021/11/11 05:36:11;;;;;;;;;65.25;50.25;;;;;6.37;67.14;101673.78;6237379;22;48015;-84
2021/11/11 05:38:37;;;;;;;;;60.75;48.75;;;;;6.32;66.90;101679.97;6236921;22;45597;-84
2021/11/11 05:41:03;;;;;;;;;68.25;54.75;;;;;6.30;67.24;101681.78;6253270;22;45883;-83
2021/11/11 05:43:28;;;;;;;;;65.00;48.00;;;;;6.43;67.15;101705.59;6268929;22;48318;-83
2021/11/11 05:45:53;;;;;;;;;63.00;50.75;;;;;6.37;67.72;101705.81;6270809;22;45984;-84
2021/11/11 05:48:19;;;;;;;;;68.25;51.75;;;;;6.44;67.52;101709.91;6273595;22;45580;-81
2021/11/11 05:50:44;;;;;;;;;66.00;53.25;;;;;6.44;67.70;101715.13;6274265;22;45679;-83
2021/11/11 05:53:10;;;;;;;;;65.75;53.75;;;;;6.08;67.42;101659.19;6270908;22;48173;-82
2021/11/11 05:55:36;;;;;;;;;65.50;51.00;;;;;6.35;67.32;101712.84;6274289;22;46026;-86
2021/11/11 05:58:02;;;;;;;;;73.50;55.25;;;;;6.24;67.39;101695.03;6274581;22;45589;-86
2021/11/11 06:00:28;;;;;;;;;60.50;50.00;;;;;6.33;67.15;101706.84;6276755;22;45534;-83
2021/11/11 06:03:07;;;;;;;;;;;;;;;;;;;;;
2021/11/11 06:14:05;;;;;;;;;;;;;;;;;;;;;
2021/11/11 06:27:26;;;;;;;;;63.50;49.00;;;;;5.98;66.79;101717.66;4433427;27;18133341;-82
2021/11/11 06:29:54;;;;;;;;;70.25;52.25;;;;;6.21;66.93;101754.09;5063148;28;45736;-80
2021/11/11 06:32:20;;;;;;;;;64.50;51.25;;;;;6.14;66.59;101753.50;5068932;28;45990;-82
2021/11/11 06:34:45;;;;;;;;;60.75;48.00;;;;;6.10;66.77;101757.06;5053958;28;45677;-81
2021/11/11 06:37:14;;;;;;;;;59.50;48.75;;;;;6.35;66.53;101816.94;5064978;28;45222;-81
2021/11/11 06:39:39;;;;;;;;;62.75;50.50;;;;;6.08;66.82;101771.91;5069730;28;45268;-83
2021/11/11 06:42:05;;;;;;;;;61.25;49.00;;;;;6.29;66.44;101806.75;5063003;28;45432;-86
2021/11/11 06:44:30;;;;;;;;;61.50;49.25;;;;;6.27;66.69;101817.19;5057355;28;45691;-82
2021/11/11 06:46:56;;;;;;;;;63.75;49.75;;;;;6.25;66.69;101828.56;5053141;28;45678;-83
2021/11/11 06:49:21;;;;;;;;;61.00;48.75;;;;;6.14;66.63;101809.88;5048786;28;45823;-80
2021/11/11 06:51:47;;;;;;;;;63.50;49.25;;;;;5.98;66.66;101793.91;5042940;28;46185;-82
2021/11/11 06:54:16;;;;;;;;;61.50;47.00;;;;;6.03;66.83;101814.56;5040419;28;46100;-83
2021/11/11 06:56:41;;;;;;;;;64.50;49.50;;;;;6.17;66.99;101844.44;5029989;28;46051;-83
2021/11/11 06:59:07;;;;;;;;;63.50;50.00;;;;;6.10;67.25;101829.91;5045914;28;46436;-84
2021/11/11 07:01:50;;;;;;;;;62.25;49.50;;;;;6.14;67.19;101843.69;5048715;28;45838;-82
2021/11/11 07:04:16;;;;;;;;;68.00;50.25;;;;;6.06;67.23;101841.31;5049897;28;45742;-82
2021/11/11 07:06:41;;;;;;;;;61.25;49.50;;;;;6.09;67.19;101850.78;5043249;28;46881;-82
2021/11/11 07:09:07;;;;;;;;;62.25;49.75;;;;;6.11;67.25;101848.97;5036257;28;45818;-82
2021/11/11 07:11:32;;;;;;;;;65.75;51.25;;;;;6.11;67.03;101848.97;5054877;28;45755;-83
2021/11/11 07:13:58;;;;;;;;;66.50;49.75;;;;;6.12;67.07;101848.94;5055696;28;45782;-82
2021/11/11 07:16:24;;;;;;;;;66.00;50.25;;;;;6.15;67.38;101835.84;5058882;28;45860;-82
2021/11/11 07:29:51;;;;;;;;;;;;;;;;;;;;;
2021/11/11 07:34:01;;;;;;;;;;;;;;;;;;;;;
2021/11/11 07:36:31;;;;;;;;;66.00;48.50;;;;;6.42;66.49;101852.28;4811776;29;47626;-81
2021/11/11 07:39:31;;;;;;;;;61.25;48.00;;;;;5.77;67.03;101747.78;4787230;29;45935;-80
2021/11/11 07:41:57;;;;;;;;;63.25;50.50;;;;;6.41;67.01;101857.53;4783012;29;45954;-83
2021/11/11 07:44:22;;;;;;;;;63.50;50.00;;;;;6.39;67.28;101854.97;4786832;29;47357;-82
2021/11/11 07:46:48;;;;;;;;;64.00;49.25;;;;;6.41;66.65;101839.31;4780554;29;48149;-82
2021/11/11 07:49:13;;;;;;;;;62.75;51.50;;;;;6.40;67.37;101854.06;4784266;29;45665;-83
2021/11/11 07:51:39;;;;;;;;;61.75;47.00;;;;;6.11;66.98;101800.41;4769474;29;45754;-83
2021/11/11 07:54:05;;;;;;;;;62.50;50.25;;;;;6.37;66.98;101853.34;4782207;29;46694;-82
2021/11/11 07:56:31;;;;;;;;;60.75;50.00;;;;;6.36;67.37;101847.28;4783626;29;48188;-81
2021/11/11 07:58:57;;;;;;;;;72.75;54.50;;;;;6.35;67.42;101842.13;4793091;29;47366;-81
2021/11/11 08:01:23;;;;;;;;;65.25;52.75;;;;;6.35;67.17;101836.91;4838719;29;46076;-81
2021/11/11 08:03:49;;;;;;;;;67.00;47.25;;;;;6.35;66.90;101840.38;4831201;29;46495;-84
2021/11/11 08:06:15;;;;;;;;;63.50;49.50;;;;;6.19;67.44;101808.81;4882372;29;46440;-82
2021/11/11 08:08:41;;;;;;;;;66.50;48.75;;;;;6.39;67.64;101825.50;4895737;29;45994;-82
2021/11/11 08:11:07;;;;;;;;;60.50;49.00;;;;;6.40;67.48;101827.19;4898749;28;45904;-81
2021/11/11 08:13:33;;;;;;;;;64.50;52.00;;;;;6.37;67.57;101812.53;4915537;28;48047;-81
2021/11/11 08:15:59;;;;;;;;;63.50;47.75;;;;;6.37;67.45;101814.31;4936380;28;47688;-82
2021/11/11 08:18:25;;;;;;;;;67.25;52.50;;;;;6.45;67.36;101827.88;4971219;28;45965;-82
2021/11/11 08:20:55;;;;;;;;;62.25;48.50;;;;;6.22;67.33;101787.03;5026476;28;46098;-81
2021/11/11 08:23:24;;;;;;;;;62.75;51.00;;;;;6.14;67.08;101769.09;5027934;28;46111;-83
2021/11/11 08:25:51;;;;;;;;;70.25;56.75;;;;;6.53;67.12;101820.69;5033240;28;46188;-83
2021/11/11 08:28:18;;;;;;;;;61.75;48.25;;;;;6.56;67.20;101825.75;5033143;28;46166;-82
2021/11/11 08:30:45;;;;;;;;;67.00;55.00;;;;;6.58;67.34;101829.19;5030004;28;46067;-82
2021/11/11 08:33:11;;;;;;;;;67.50;53.75;;;;;6.59;67.31;101826.50;5024401;28;47754;-82
2021/11/11 08:35:37;;;;;;;;;65.25;54.00;;;;;6.56;67.50;101812.75;5025111;28;46622;-75
2021/11/11 08:38:04;;;;;;;;;66.00;52.25;;;;;6.50;67.82;101795.59;5031956;28;45996;-80
2021/11/11 08:40:31;;;;;;;;;70.25;55.25;;;;;6.62;67.95;101817.75;5020252;28;45774;-75
2021/11/11 08:42:59;;;;;;;;;76.75;56.50;;;;;6.64;67.87;101814.16;5023876;28;46517;-75
2021/11/11 08:45:26;;;;;;;;;73.25;53.50;;;;;6.60;67.54;101801.31;5032436;28;45665;-76
2021/11/11 08:47:52;;;;;;;;;75.50;53.25;;;;;6.65;67.90;101805.47;5028320;28;45468;-74
2021/11/11 08:50:19;;;;;;;;;73.75;55.00;;;;;6.66;67.66;101798.50;5032357;28;45824;-76
2021/11/11 08:52:45;;;;;;;;;71.50;55.75;;;;;6.64;67.86;101789.91;5022896;28;45661;-75
2021/11/11 08:55:14;;;;;;;;;72.25;54.75;;;;;6.70;67.74;101794.88;5023409;28;46369;-76
2021/11/11 08:57:40;;;;;;;;;70.75;56.25;;;;;6.71;68.25;101789.63;5015392;28;45730;-74
2021/11/11 09:06:50;;;;;;;;;73.25;53.50;;;;;6.86;68.28;101779.53;5014868;28;45573;-75
2021/11/11 09:09:17;;;;;;;;;73.00;57.00;;;;;6.92;67.93;101787.13;5015032;28;45823;-76
2021/11/11 09:11:43;;;;;;;;;72.75;57.25;;;;;6.98;68.42;101773.88;5015115;28;45579;-75
2021/11/11 09:14:09;;;;;;;;;75.75;57.50;;;;;7.06;68.35;101787.47;5014690;28;46388;-76
2021/11/11 09:16:38;;;;;;;;;81.00;57.75;;;;;7.09;68.50;101780.38;5015021;28;45682;-75
2021/11/11 09:19:05;;;;;;;;;75.00;57.50;;;;;7.15;68.30;101793.19;5013075;28;45546;-75
2021/11/11 09:21:31;;;;;;;;;76.00;58.00;;;;;7.20;68.29;101782.59;5014978;28;45564;-75
2021/11/11 09:23:57;;;;;;;;;78.75;60.50;;;;;7.18;68.15;101770.53;5014846;28;45562;-74
2021/11/11 09:26:23;;;;;;;;;66.75;55.25;;;;;7.21;67.93;101773.00;5014474;28;46492;-76
2021/11/11 09:28:49;;;;;;;;;68.25;54.75;;;;;7.31;68.19;101780.41;5014462;28;45678;-76
2021/11/11 09:31:15;;;;;;;;;76.50;56.00;;;;;7.40;67.66;101774.84;4996703;28;45874;-75
2021/11/11 09:33:42;;;;;;;;;75.50;57.75;;;;;7.42;67.44;101775.63;5014577;28;46335;-75
2021/11/11 09:36:08;;;;;;;;;71.50;56.00;;;;;7.54;67.54;101780.38;5014356;28;47198;-76
2021/11/11 09:38:34;;;;;;;;;79.25;60.00;;;;;7.58;67.63;101779.34;5014426;28;45683;-75
2021/11/11 09:41:00;;;;;;;;;77.75;59.25;;;;;7.58;67.96;101778.50;5014692;28;45540;-74
2021/11/11 09:43:25;;;;;;;;;74.50;57.50;;;;;7.67;67.80;101790.28;5014234;28;46236;-75
2021/11/11 09:45:52;;;;;;;;;78.00;59.00;;;;;7.70;67.60;101788.44;5014522;28;46091;-76
2021/11/11 09:48:18;;;;;;;;;78.25;58.50;;;;;7.72;67.56;101788.38;5014237;28;45868;-76
2021/11/11 09:50:46;;;;;;;;;72.50;59.00;;;;;7.68;67.41;101769.38;5013932;28;45508;-77
2021/11/11 09:53:15;;;;;;;;;76.75;60.00;;;;;7.71;67.15;101777.09;5013980;28;46620;-77
2021/11/11 09:58:37;;;;;;;;;83.00;61.25;;;;;7.82;67.06;101761.00;5014186;28;45647;-77
2021/11/11 10:01:07;;;;;;;;;83.50;60.00;;;;;7.94;67.03;101773.53;5012463;28;45647;-77
2021/11/11 10:03:40;;;;;;;;;74.25;59.75;;;;;7.99;67.26;101787.22;5013768;28;47820;-77
2021/11/11 10:06:06;;;;;;;;;78.00;60.50;;;;;8.02;67.51;101779.28;5013839;28;47383;-76
2021/11/11 10:08:38;;;;;;;;;75.25;57.25;;;;;8.04;67.38;101774.00;5013878;28;46021;-77
2021/11/11 10:11:11;;;;;;;;;75.00;60.25;;;;;8.05;67.41;101766.09;5013732;28;45817;-76
2021/11/11 10:13:38;;;;;;;;;82.00;62.75;;;;;8.16;67.49;101776.09;5013234;28;46849;-77
2021/11/11 10:16:08;;;;;;;;;69.25;55.75;;;;;8.19;67.25;101776.81;5013644;28;48487;-77
2021/11/11 10:18:49;;;;;;;;;83.00;63.00;;;;;8.16;67.31;101756.06;5014055;28;45827;-76
2021/11/11 10:21:26;;;;;;;;;77.00;59.25;;;;;8.26;67.30;101752.13;4995809;28;45952;-75
2021/11/11 10:23:54;;;;;;;;;75.50;57.25;;;;;8.31;67.57;101752.81;5013411;28;47226;-76
2021/11/11 10:26:27;;;;;;;;;81.00;60.00;;;;;8.32;67.49;101738.84;5013018;28;46102;-76
2021/11/11 10:28:53;;;;;;;;;78.00;58.75;;;;;8.45;67.81;101738.31;5012944;28;45725;-74
2021/11/11 10:31:21;;;;;;;;;74.50;59.00;;;;;8.51;67.84;101733.69;5013498;28;45531;-75
2021/11/11 10:34:09;;;;;;;;;76.25;59.50;;;;;8.60;67.62;101735.03;5013862;28;46426;-77
2021/11/11 10:36:44;;;;;;;;;74.25;58.50;;;;;8.69;67.75;101735.44;5013362;28;47243;-76
2021/11/11 10:39:21;;;;;;;;;78.75;60.50;;;;;8.77;67.80;101742.97;5013667;28;45687;-77
2021/11/11 10:41:47;;;;;;;;;79.75;61.75;;;;;8.75;67.60;101724.72;5013424;28;45578;-74
2021/11/11 10:44:19;;;;;;;;;79.50;60.00;;;;;8.92;67.38;101746.63;5013703;28;46559;-76
2021/11/11 10:47:13;;;;;;;;;83.50;64.25;;;;;8.85;67.39;101720.78;5012940;28;47338;-77
2021/11/11 10:49:43;;;;;;;;;79.00;63.75;;;;;9.08;67.19;101748.47;5012083;28;45643;-75
2021/11/11 10:52:20;;;;;;;;;84.25;65.00;;;;;9.17;67.00;101758.50;5013494;28;45548;-75
2021/11/11 10:55:08;;;;;;;;;81.75;64.25;;;;;9.25;66.74;101758.97;5013382;28;45890;-77
2021/11/11 10:57:39;;;;;;;;;81.00;65.75;;;;;9.31;66.69;101749.16;5013419;28;47293;-76
2021/11/11 11:00:25;;;;;;;;;81.25;63.50;;;;;9.39;66.57;101739.19;5013093;28;45564;-75
2021/11/11 11:02:55;;;;;;;;;86.00;65.25;;;;;9.50;66.52;101736.91;5013355;28;45683;-77
2021/11/11 11:05:33;;;;;;;;;80.00;62.00;;;;;9.57;66.42;101723.44;4995562;28;47509;-80
2021/11/11 11:08:06;;;;;;;;;80.25;61.75;;;;;9.76;66.09;101735.63;5014155;28;46341;-79
2021/11/11 11:10:32;;;;;;;;;78.50;60.25;;;;;9.84;66.37;101733.47;4979941;28;45859;-79
2021/11/11 11:13:03;;;;;;;;;80.25;62.00;;;;;9.76;66.28;101696.38;5015825;28;45563;-80
2021/11/11 11:15:43;;;;;;;;;79.00;61.25;;;;;10.01;65.86;101717.75;5017435;28;45759;-85
2021/11/11 11:18:10;;;;;;;;;77.00;59.50;;;;;10.09;65.55;101715.59;5017729;28;45891;-82
2021/11/11 11:20:38;;;;;;;;;79.50;60.50;;;;;10.11;65.27;101698.88;5017297;28;45787;-76
2021/11/11 11:23:22;;;;;;;;;72.00;58.50;;;;;10.22;65.60;101700.97;5016400;28;45532;-76
2021/11/11 11:25:58;;;;;;;;;79.50;59.75;;;;;10.24;65.36;101686.03;5016478;28;46429;-77
2021/11/11 11:28:30;;;;;;;;;69.50;54.00;;;;;10.26;65.10;101681.53;5016366;28;46229;-75
2021/11/11 11:30:58;;;;;;;;;76.75;58.75;;;;;10.41;64.98;101700.88;5016082;28;45588;-76
2021/11/11 11:33:33;;;;;;;;;75.00;60.00;;;;;10.46;64.90;101698.84;5016501;28;45644;-74
2021/11/11 11:36:00;;;;;;;;;65.00;52.50;;;;;10.49;64.48;101704.75;5016128;28;45665;-77
2021/11/11 11:38:27;;;;;;;;;65.25;51.00;;;;;10.45;64.45;101691.91;5016110;28;46173;-77
2021/11/11 11:40:54;;;;;;;;;72.75;55.00;;;;;10.56;64.39;101707.91;5015990;28;45838;-77
2021/11/11 11:43:28;;;;;;;;;70.75;54.50;;;;;10.59;64.30;101704.25;5016159;28;45528;-76
2021/11/11 11:45:54;;;;;;;;;70.25;54.75;;;;;10.67;64.39;101716.03;5015802;28;46783;-77
2021/11/11 11:48:23;;;;;;;;;69.25;55.00;;;;;10.66;64.25;101696.00;5016214;28;45578;-79
2021/11/11 11:50:51;;;;;;;;;68.25;54.50;;;;;10.78;64.16;101703.22;5016023;28;45793;-78
2021/11/11 11:53:21;;;;;;;;;68.25;54.00;;;;;10.85;64.04;101704.53;5015979;28;45883;-77
2021/11/11 11:55:58;;;;;;;;;73.50;56.25;;;;;10.88;63.86;101714.88;5015722;28;47838;-76
2021/11/11 11:58:49;;;;;;;;;69.50;55.75;;;;;10.88;64.08;101708.78;5015595;28;46190;-78
2021/11/11 12:04:14;;;;;;;;;71.50;55.25;;;;;11.03;63.71;101714.97;5016002;28;45529;-75
2021/11/11 12:40:06;;;;;;;;;80.25;60.25;;;;;11.42;63.12;101699.63;5015496;28;45662;-78
2021/11/11 12:43:00;;;;;;;;;79.00;59.25;;;;;11.44;63.21;101694.28;5016151;28;46180;-77
2021/11/11 12:45:35;;;;;;;;;76.50;59.50;;;;;11.42;62.83;101689.13;5016920;28;45689;-83
2021/11/11 12:48:10;;;;;;;;;73.50;56.50;;;;;11.47;62.86;101704.59;5016892;28;45927;-81
2021/11/11 12:50:58;;;;;;;;;76.75;58.75;;;;;11.46;62.74;101706.38;5016842;28;45943;-76
2021/11/11 12:53:44;;;;;;;;;76.00;58.00;;;;;11.42;62.71;101694.38;5016852;28;46227;-80
2021/11/11 12:56:18;;;;;;;;;75.75;58.25;;;;;11.32;62.73;101667.81;5015717;28;45570;-76
2021/11/11 12:59:22;;;;;;;;;70.75;56.25;;;;;11.51;62.41;101703.47;5017348;28;45679;-75
2021/11/11 13:01:52;;;;;;;;;75.25;57.50;;;;;11.51;62.41;101704.31;4976232;28;46461;-77
2021/11/11 13:04:18;;;;;;;;;73.00;56.00;;;;;11.48;62.14;101690.53;4980372;28;46101;-77
2021/11/11 13:06:51;;;;;;;;;76.25;58.25;;;;;11.53;62.00;101699.00;4984178;28;45539;-77
2021/11/11 13:09:22;;;;;;;;;68.25;54.25;;;;;11.52;62.23;101692.06;4985351;28;45625;-77
2021/11/11 13:11:54;;;;;;;;;79.50;58.00;;;;;11.51;61.84;101701.69;4985111;28;45925;-78
2021/11/11 13:14:30;;;;;;;;;79.75;60.00;;;;;11.44;62.02;101696.91;4985168;28;46222;-76
2021/11/11 13:16:58;;;;;;;;;73.75;58.50;;;;;11.54;61.99;101703.31;4979632;28;45709;-76
2021/11/11 13:19:47;;;;;;;;;84.00;61.50;;;;;11.53;62.10;101684.09;4976566;28;45728;-76
2021/11/11 13:22:49;;;;;;;;;80.25;60.25;;;;;11.55;61.99;101676.97;4975374;28;46717;-76
2021/11/11 13:25:49;;;;;;;;;74.50;57.50;;;;;11.58;61.86;101678.59;4972951;28;47206;-77
2021/11/11 15:04:24;;;;;;;;;48.00;40.25;;;;;11.96;59.03;101644.84;5015533;28;45696;-85
2021/11/11 15:19:18;;;;;;;;;55.75;43.00;;;;;11.76;57.87;101602.25;5017666;28;45738;-80
2021/11/11 16:24:48;;;;;;;;;58.75;48.50;;;;;12.19;58.06;101610.16;4978084;28;45606;-83
2021/11/11 16:27:16;;;;;;;;;63.75;50.50;;;;;12.10;58.27;101608.91;4975793;28;46189;-83
2021/11/11 16:29:41;;;;;;;;;66.50;52.25;;;;;12.04;58.40;101611.06;4966982;28;45655;-77
2021/11/11 16:32:07;;;;;;;;;67.00;53.50;;;;;11.95;58.68;101606.38;4957056;28;46002;-78
2021/11/11 16:34:34;;;;;;;;;63.75;50.50;;;;;11.90;58.69;101611.91;4955352;28;46639;-75
2021/11/11 16:37:00;;;;;;;;;72.00;55.00;;;;;11.83;59.02;101594.84;4955025;28;46075;-74
2021/11/11 16:39:26;;;;;;;;;72.00;54.25;;;;;11.77;59.08;101606.56;4972502;28;45498;-78
2021/11/11 16:41:53;;;;;;;;;74.25;56.50;;;;;11.68;59.10;101608.84;5015546;28;45873;-76
2021/11/11 16:44:19;;;;;;;;;64.00;52.25;;;;;11.62;59.35;101604.81;5015629;28;46349;-77
2021/11/11 16:46:46;;;;;;;;;66.25;51.50;;;;;11.52;59.46;101590.56;5015375;28;46182;-78
2021/11/11 16:49:14;;;;;;;;;49.25;38.00;;;;;11.47;59.81;101591.75;5015325;28;45965;-80
2021/11/11 16:51:40;;;;;;;;;64.00;47.50;;;;;11.33;59.81;101585.56;5016679;28;45488;-77
2021/11/11 16:54:06;;;;;;;;;67.75;52.25;;;;;11.43;60.10;101606.00;5017511;28;47097;-82
2021/11/11 16:56:33;;;;;;;;;73.75;56.00;;;;;11.39;60.04;101609.75;5018675;28;46031;-76
2021/11/11 16:58:59;;;;;;;;;68.25;54.50;;;;;11.32;60.14;101598.75;5015952;28;45793;-77
2021/11/11 17:01:25;;;;;;;;;66.75;50.75;;;;;11.30;60.21;101609.34;4997390;28;45952;-78
2021/11/11 17:03:50;;;;;;;;;63.25;51.00;;;;;11.27;60.70;101619.16;5015494;28;47452;-79
2021/11/11 17:09:37;;;;;;;;;66.75;53.25;;;;;11.20;60.59;101621.28;5014138;28;45619;-76
2021/11/11 17:12:03;;;;;;;;;67.50;53.50;;;;;11.17;60.75;101623.25;5014787;28;45679;-77